createdAt,value
2023-03-25T00:00:16.496Z,96.74
2023-03-25T00:05:57.159Z,96.48
2023-03-25T00:11:28.582Z,96.25
2023-03-25T00:13:56.045Z,95.50
2023-03-25T00:16:23.485Z,95.30
2023-03-25T00:18:51.172Z,93.77
2023-03-25T00:21:20.771Z,94.32
2023-03-25T00:23:48.185Z,92.84
2023-03-25T00:26:15.830Z,93.12
2023-03-25T00:28:43.321Z,93.50
2023-03-25T00:31:13.420Z,92.04
2023-03-25T00:33:42.488Z,92.34
2023-03-25T00:39:06.777Z,91.94
2023-03-25T00:41:35.721Z,91.63
2023-03-25T00:44:04.130Z,91.62
2023-03-25T00:46:33.178Z,91.16
2023-03-25T00:49:01.025Z,91.56
2023-03-25T00:54:27.928Z,94.58
2023-03-25T00:56:56.051Z,95.85
2023-03-25T01:02:26.693Z,97.57
2023-03-25T01:04:54.946Z,97.86
2023-03-25T01:07:22.381Z,98.24
2023-03-25T01:09:51.134Z,97.88
2023-03-25T01:15:17.634Z,98.30
2023-03-25T01:17:45.154Z,97.75
2023-03-25T01:20:12.983Z,97.49
2023-03-25T01:25:44.801Z,95.96
2023-03-25T01:28:12.283Z,96.68
2023-03-25T01:30:39.706Z,96.11
2023-03-25T01:33:07.843Z,96.37
2023-03-25T01:35:35.266Z,95.79
2023-03-25T01:40:53.236Z,96.78
2023-03-25T01:43:20.753Z,97.06
2023-03-25T01:45:49.451Z,97.12
2023-03-25T01:48:20.011Z,95.32
2023-03-25T01:53:46.235Z,95.74
2023-03-25T01:56:18.408Z,96.10
2023-03-25T01:58:46.580Z,95.48
2023-03-25T02:01:15.047Z,95.40
2023-03-25T02:06:44.439Z,94.30
2023-03-25T02:09:14.476Z,95.29
2023-03-25T02:11:43.276Z,94.76
2023-03-25T02:14:12.678Z,95.36
2023-03-25T02:16:47.043Z,95.07
2023-03-25T02:19:33.210Z,94.56
2023-03-25T02:22:20.639Z,94.93
2023-03-25T02:25:04.124Z,94.35
2023-03-25T02:27:45.944Z,93.77
2023-03-25T02:33:47.530Z,92.41
2023-03-25T02:37:00.045Z,92.19
2023-03-25T02:39:33.202Z,92.16
2023-03-25T02:42:12.479Z,91.24
2023-03-25T02:44:42.863Z,92.47
2023-03-25T02:50:15.394Z,94.82
2023-03-25T02:52:45.894Z,96.20
2023-03-25T02:55:16.885Z,96.88
2023-03-25T02:57:47.464Z,98.13
2023-03-25T03:00:18.107Z,98.57
2023-03-25T03:03:11.251Z,98.17
2023-03-25T03:05:41.018Z,98.10
2023-03-25T03:08:22.609Z,97.94
2023-03-25T03:10:54.140Z,98.35
2023-03-25T03:13:29.871Z,98.13
2023-03-25T03:16:03.046Z,97.90
2023-03-25T03:18:42.082Z,97.61
2023-03-25T03:21:13.953Z,98.11
2023-03-25T03:23:50.191Z,98.11
2023-03-25T03:26:26.341Z,98.24
2023-03-25T03:28:59.047Z,98.05
2023-03-25T03:31:49.807Z,98.79
2023-03-25T03:34:22.541Z,100.00
2023-03-25T03:36:51.612Z,100.00
2023-03-25T03:39:21.213Z,100.00
2023-03-25T03:41:59.426Z,100.00
2023-03-25T03:44:31.531Z,100.00
2023-03-25T03:50:06.495Z,100.00
2023-03-25T03:52:38.311Z,100.00
2023-03-25T03:55:10.726Z,100.00
2023-03-25T03:57:41.124Z,100.00
2023-03-25T04:03:15.858Z,100.00
2023-03-25T04:05:45.386Z,100.00
2023-03-25T04:08:38.678Z,100.00
2023-03-25T04:11:09.892Z,100.00
2023-03-25T04:16:39.615Z,100.00
2023-03-25T04:19:09.248Z,100.00
2023-03-25T04:21:36.654Z,100.00
2023-03-25T04:24:04.584Z,100.00
2023-03-25T04:29:20.541Z,100.00
2023-03-25T04:31:49.951Z,100.00
2023-03-25T04:34:20.412Z,100.00
2023-03-25T04:36:49.994Z,100.00
2023-03-25T04:39:18.381Z,100.00
2023-03-25T04:44:45.139Z,100.00
2023-03-25T04:47:14.852Z,100.00
2023-03-25T04:49:44.903Z,100.00
2023-03-25T04:52:12.479Z,100.00
2023-03-25T04:57:38.562Z,99.66
2023-03-25T05:00:10.643Z,99.27
2023-03-25T05:02:38.849Z,98.47
2023-03-25T05:05:08.234Z,98.00
2023-03-25T05:10:40.087Z,98.59
2023-03-25T05:13:08.861Z,98.59
2023-03-25T05:15:39.482Z,96.80
2023-03-25T05:18:21.304Z,97.53
2023-03-25T05:20:51.321Z,95.52
2023-03-25T05:23:19.242Z,96.59
2023-03-25T05:28:45.710Z,96.89
2023-03-25T05:31:13.119Z,95.80
2023-03-25T05:36:31.176Z,95.37
2023-03-25T05:38:59.081Z,96.28
2023-03-25T05:41:32.603Z,94.24
2023-03-25T05:47:01.121Z,94.81
2023-03-25T05:52:24.397Z,94.11
2023-03-25T05:54:51.974Z,95.01
2023-03-25T05:57:19.594Z,94.66
2023-03-25T05:59:48.827Z,95.40
2023-03-25T06:02:17.578Z,95.08
2023-03-25T06:04:46.564Z,95.85
2023-03-25T06:07:19.823Z,95.43
2023-03-25T06:09:49.112Z,95.03
2023-03-25T06:12:19.659Z,95.68
2023-03-25T06:14:47.739Z,94.24
2023-03-25T06:17:18.878Z,93.81
2023-03-25T06:19:49.896Z,95.57
2023-03-25T06:22:17.773Z,97.15
2023-03-25T06:27:52.159Z,98.66
2023-03-25T06:30:21.070Z,99.52
2023-03-25T06:32:50.532Z,99.50
2023-03-25T06:35:19.975Z,99.06
2023-03-25T06:37:48.792Z,97.79
2023-03-25T06:40:53.576Z,97.00
2023-03-25T06:43:23.044Z,96.39
2023-03-25T06:49:24.100Z,95.96
2023-03-25T06:51:54.681Z,97.43
2023-03-25T06:54:22.756Z,98.83
2023-03-25T06:56:50.417Z,99.76
2023-03-25T06:59:19.295Z,99.86
2023-03-25T07:01:46.830Z,100.00
2023-03-25T07:04:14.270Z,100.00
2023-03-25T07:06:41.904Z,100.00
2023-03-25T07:09:09.421Z,100.00
2023-03-25T07:14:33.410Z,98.52
2023-03-25T07:20:04.399Z,99.07
2023-03-25T07:22:31.826Z,96.91
2023-03-25T07:24:59.286Z,97.18
2023-03-25T07:27:27.113Z,98.90
2023-03-25T07:30:04.639Z,99.83
2023-03-25T07:35:34.909Z,100.00
2023-03-25T07:38:02.810Z,100.00
2023-03-25T07:40:32.208Z,100.00
2023-03-25T07:42:59.825Z,100.00
2023-03-25T07:48:59.950Z,100.00
2023-03-25T07:51:27.416Z,100.00
2023-03-25T07:53:55.103Z,100.00
2023-03-25T07:56:32.777Z,100.00
2023-03-25T08:01:57.125Z,100.00
2023-03-25T08:04:25.996Z,100.00
2023-03-25T08:06:53.438Z,100.00
2023-03-25T08:12:22.013Z,100.00
2023-03-25T08:17:52.705Z,100.00
2023-03-25T08:20:21.583Z,100.00
2023-03-25T08:22:49.279Z,100.00
2023-03-25T08:25:16.713Z,100.00
2023-03-25T08:27:44.183Z,100.00
2023-03-25T08:33:11.545Z,100.00
2023-03-25T08:35:40.480Z,100.00
2023-03-25T08:38:08.143Z,100.00
2023-03-25T08:40:36.314Z,100.00
2023-03-25T08:43:05.580Z,100.00
2023-03-25T08:45:34.743Z,98.59
2023-03-25T08:50:58.832Z,96.92
2023-03-25T08:53:26.868Z,95.55
2023-03-25T08:55:55.274Z,93.04
2023-03-25T08:58:23.065Z,94.01
2023-03-25T09:01:15.850Z,93.20
2023-03-25T09:03:43.319Z,92.99
2023-03-25T09:09:15.489Z,91.84
2023-03-25T09:11:42.959Z,89.68
2023-03-25T09:14:10.698Z,90.16
2023-03-25T09:16:38.315Z,88.20
2023-03-25T09:22:08.894Z,84.94
2023-03-25T09:24:38.211Z,85.29
2023-03-25T09:27:22.327Z,86.54
2023-03-25T09:29:49.756Z,84.56
2023-03-25T09:35:19.705Z,80.84
2023-03-25T09:37:52.092Z,81.46
2023-03-25T09:43:31.774Z,73.93
2023-03-25T09:45:59.924Z,71.80
2023-03-25T09:48:31.886Z,70.55
2023-03-25T09:51:01.721Z,72.69
2023-03-25T09:53:33.200Z,75.12
2023-03-25T09:56:01.043Z,73.85
2023-03-25T09:58:37.603Z,77.69
2023-03-25T10:01:16.348Z,75.79
2023-03-25T10:03:52.701Z,74.43
2023-03-25T10:06:20.863Z,73.36
2023-03-25T10:08:57.320Z,71.83
2023-03-25T10:11:31.627Z,73.20
2023-03-25T10:14:23.022Z,78.21
2023-03-25T10:17:00.470Z,78.65
2023-03-25T10:19:38.228Z,79.25
2023-03-25T10:22:09.031Z,78.02
2023-03-25T10:27:37.201Z,79.88
2023-03-25T10:30:11.886Z,79.93
2023-03-25T10:35:41.345Z,79.62
2023-03-25T10:41:27.982Z,74.93
2023-03-25T10:43:55.828Z,73.93
2023-03-25T10:46:28.920Z,73.78
2023-03-25T10:52:00.092Z,77.13
2023-03-25T10:54:31.651Z,76.59
2023-03-25T10:57:00.935Z,78.45
2023-03-25T11:02:27.006Z,77.44
2023-03-25T11:04:57.246Z,77.19
2023-03-25T11:07:30.094Z,76.28
2023-03-25T11:10:10.248Z,75.78
2023-03-25T11:18:16.088Z,75.07
2023-03-25T11:20:47.844Z,73.18
2023-03-25T11:23:22.452Z,72.96
2023-03-25T11:25:50.016Z,74.13
2023-03-25T11:28:21.400Z,79.50
2023-03-25T11:31:13.170Z,83.91
2023-03-25T11:36:52.569Z,86.60
2023-03-25T11:39:28.470Z,84.39
2023-03-25T11:41:55.932Z,85.85
2023-03-25T11:44:25.189Z,82.55
2023-03-25T11:46:55.434Z,83.06
2023-03-25T11:52:22.355Z,77.04
2023-03-25T11:57:56.265Z,76.96
2023-03-25T12:00:38.057Z,76.64
2023-03-25T12:03:07.235Z,73.81
2023-03-25T12:05:35.558Z,74.52
2023-03-25T12:11:05.627Z,73.13
2023-03-25T12:16:44.159Z,72.93
2023-03-25T12:19:17.513Z,73.73
2023-03-25T12:21:55.870Z,74.48
2023-03-25T12:24:32.656Z,75.91
2023-03-25T12:27:11.362Z,75.95
2023-03-25T12:32:46.935Z,75.99
2023-03-25T12:35:24.461Z,76.00
2023-03-25T12:38:29.505Z,74.44
2023-03-25T12:41:06.660Z,74.86
2023-03-25T12:47:00.502Z,83.87
2023-03-25T12:49:46.137Z,83.69
2023-03-25T12:55:26.349Z,87.31
2023-03-25T13:00:59.756Z,90.35
2023-03-25T13:03:57.149Z,93.27
2023-03-25T13:06:31.180Z,93.28
2023-03-25T13:09:02.084Z,96.27
2023-03-25T13:14:24.978Z,100.00
2023-03-25T13:16:55.599Z,100.00
2023-03-25T13:19:25.609Z,100.00
2023-03-25T13:21:57.289Z,100.00
2023-03-25T13:24:30.147Z,100.00
2023-03-25T13:26:57.796Z,100.00
2023-03-25T13:29:28.997Z,100.00
2023-03-25T13:31:58.490Z,100.00
2023-03-25T13:34:29.848Z,100.00
2023-03-25T13:37:06.724Z,100.00
2023-03-25T13:39:47.917Z,100.00
2023-03-25T13:42:19.312Z,100.00
2023-03-25T13:44:47.721Z,100.00
2023-03-25T13:47:19.316Z,100.00
2023-03-25T13:49:50.871Z,100.00
2023-03-25T13:52:19.958Z,100.00
2023-03-25T13:54:50.344Z,100.00
2023-03-25T14:00:48.501Z,94.88
2023-03-25T14:06:46.189Z,86.61
2023-03-25T14:09:42.235Z,92.40
2023-03-25T14:15:12.669Z,92.80
2023-03-25T14:17:40.783Z,94.39
2023-03-25T14:20:12.313Z,95.02
2023-03-25T14:22:43.861Z,96.10
2023-03-25T14:25:20.911Z,95.99
2023-03-25T14:27:49.999Z,97.35
2023-03-25T14:30:21.449Z,97.43
2023-03-25T14:32:49.632Z,97.63
2023-03-25T14:35:49.086Z,98.26
2023-03-25T14:38:52.636Z,97.32
2023-03-25T14:41:30.245Z,97.31
2023-03-25T14:44:12.078Z,98.28
2023-03-25T14:49:53.944Z,100.00
2023-03-25T14:52:28.331Z,100.00
2023-03-25T14:58:01.713Z,100.00
2023-03-25T15:00:34.106Z,100.00
2023-03-25T15:03:04.834Z,100.00
2023-03-25T15:05:33.354Z,100.00
2023-03-25T15:08:11.072Z,100.00
2023-03-25T15:10:40.599Z,100.00
2023-03-25T15:13:11.060Z,100.00
2023-03-25T15:22:19.458Z,100.00
2023-03-25T15:24:52.650Z,100.00
2023-03-25T15:27:42.441Z,100.00
2023-03-25T15:30:20.258Z,100.00
2023-03-25T15:35:59.808Z,100.00
2023-03-25T15:38:50.354Z,100.00
2023-03-25T15:41:32.749Z,100.00
2023-03-25T15:47:26.436Z,100.00
2023-03-25T15:53:42.449Z,100.00
2023-03-25T15:56:13.237Z,100.00
2023-03-25T15:58:45.654Z,100.00
2023-03-25T16:01:17.785Z,99.60
2023-03-25T16:03:46.331Z,98.14
2023-03-25T16:06:40.183Z,98.19
2023-03-25T16:09:09.281Z,100.00
2023-03-25T16:11:43.274Z,100.00
2023-03-25T16:17:01.910Z,99.74
2023-03-25T16:22:32.732Z,100.00
2023-03-25T16:25:02.635Z,100.00
2023-03-25T16:27:35.548Z,100.00
2023-03-25T16:30:03.647Z,98.62
2023-03-25T16:35:29.845Z,100.00
2023-03-25T16:37:58.145Z,100.00
2023-03-25T16:40:29.146Z,100.00
2023-03-25T16:43:05.242Z,100.00
2023-03-25T16:45:33.129Z,99.49
2023-03-25T16:51:06.748Z,100.00
2023-03-25T16:53:35.372Z,100.00
2023-03-25T16:56:05.632Z,100.00
2023-03-25T16:58:34.890Z,100.00
2023-03-25T17:04:10.639Z,100.00
2023-03-25T17:06:39.789Z,100.00
2023-03-25T17:09:11.835Z,100.00
2023-03-25T17:11:39.484Z,100.00
2023-03-25T17:14:14.889Z,100.00
2023-03-25T17:16:43.001Z,100.00
2023-03-25T17:19:14.049Z,100.00
2023-03-25T17:24:38.837Z,100.00
2023-03-25T17:27:08.216Z,100.00
2023-03-25T17:29:50.078Z,100.00
2023-03-25T17:32:19.246Z,100.00
2023-03-25T17:37:54.852Z,100.00
2023-03-25T17:40:23.720Z,100.00
2023-03-25T17:42:51.127Z,100.00
2023-03-25T17:45:21.934Z,100.00
2023-03-25T17:47:51.284Z,100.00
2023-03-25T17:53:23.505Z,100.00
2023-03-25T17:55:51.678Z,100.00
2023-03-25T17:58:20.265Z,100.00
2023-03-25T18:00:49.811Z,100.00
2023-03-25T18:03:18.827Z,100.00
2023-03-25T18:05:50.781Z,100.00
2023-03-25T18:08:18.443Z,100.00
2023-03-25T18:10:46.039Z,100.00
2023-03-25T18:16:03.091Z,100.00
2023-03-25T18:18:30.648Z,100.00
2023-03-25T18:20:59.703Z,100.00
2023-03-25T18:23:28.226Z,100.00
2023-03-25T18:28:54.676Z,100.00
2023-03-25T18:31:23.483Z,100.00
2023-03-25T18:33:51.452Z,100.00
2023-03-25T18:36:19.238Z,100.00
2023-03-25T18:38:47.619Z,100.00
2023-03-25T18:41:40.183Z,100.00
2023-03-25T18:44:07.628Z,100.00
2023-03-25T18:49:25.184Z,100.00
2023-03-25T18:51:53.088Z,100.00
2023-03-25T18:54:20.587Z,100.00
2023-03-25T18:56:48.076Z,100.00
2023-03-25T18:59:17.419Z,100.00
2023-03-25T19:01:45.192Z,100.00
2023-03-25T19:04:18.082Z,100.00
2023-03-25T19:06:48.101Z,100.00
2023-03-25T19:09:18.624Z,100.00
2023-03-25T19:14:48.659Z,100.00
2023-03-25T19:17:16.158Z,100.00
2023-03-25T19:19:43.739Z,100.00
2023-03-25T19:22:16.145Z,100.00
2023-03-25T19:24:43.680Z,100.00
2023-03-25T19:27:11.369Z,100.00
2023-03-25T19:29:39.213Z,100.00
2023-03-25T19:32:06.967Z,100.00
2023-03-25T19:37:26.607Z,100.00
2023-03-25T19:39:55.680Z,100.00
2023-03-25T19:45:21.990Z,100.00
2023-03-25T19:47:52.031Z,100.00
2023-03-25T19:50:21.288Z,100.00
2023-03-25T19:52:51.433Z,100.00
2023-03-25T19:55:19.954Z,100.00
2023-03-25T19:57:47.421Z,100.00
2023-03-25T20:00:17.736Z,100.00
2023-03-25T20:02:46.828Z,100.00
2023-03-25T20:08:14.025Z,100.00
2023-03-25T20:10:41.913Z,100.00
2023-03-25T20:13:09.911Z,100.00
2023-03-25T20:15:37.356Z,100.00
2023-03-25T20:18:06.521Z,100.00
2023-03-25T20:20:33.978Z,100.00
2023-03-25T20:23:01.419Z,100.00
2023-03-25T20:25:30.283Z,100.00
2023-03-25T20:27:57.726Z,100.00
2023-03-25T20:30:25.791Z,100.00
2023-03-25T20:32:53.279Z,100.00
2023-03-25T20:35:20.997Z,100.00
2023-03-25T20:37:49.641Z,100.00
2023-03-25T20:40:19.178Z,100.00
2023-03-25T20:42:49.780Z,100.00
2023-03-25T20:45:18.465Z,100.00
2023-03-25T20:47:46.196Z,100.00
2023-03-25T20:50:16.197Z,100.00
2023-03-25T20:52:43.794Z,100.00
2023-03-25T20:55:12.019Z,100.00
2023-03-25T21:00:39.213Z,100.00
2023-03-25T21:03:06.846Z,100.00
2023-03-25T21:05:34.342Z,100.00
2023-03-25T21:08:01.776Z,100.00
2023-03-25T21:10:29.225Z,100.00
2023-03-25T21:12:56.645Z,100.00
2023-03-25T21:15:24.111Z,100.00
2023-03-25T21:20:50.397Z,100.00
2023-03-25T21:23:18.339Z,100.00
2023-03-25T21:25:46.137Z,100.00
2023-03-25T21:31:09.701Z,100.00
2023-03-25T21:36:45.328Z,100.00
2023-03-25T21:39:12.900Z,100.00
2023-03-25T21:41:40.352Z,100.00
2023-03-25T21:44:08.162Z,100.00
2023-03-25T21:46:36.671Z,100.00
2023-03-25T21:49:04.384Z,100.00
2023-03-25T21:51:32.146Z,100.00
2023-03-25T21:54:00.922Z,100.00
2023-03-25T21:59:25.851Z,100.00
2023-03-25T22:01:53.591Z,100.00
2023-03-25T22:04:21.114Z,100.00
2023-03-25T22:09:49.169Z,100.00
2023-03-25T22:12:16.719Z,100.00
2023-03-25T22:14:45.717Z,100.00
2023-03-25T22:17:13.187Z,100.00
2023-03-25T22:19:41.026Z,100.00
2023-03-25T22:22:10.948Z,100.00
2023-03-25T22:24:38.403Z,100.00
2023-03-25T22:27:07.170Z,100.00
2023-03-25T22:29:35.043Z,100.00
2023-03-25T22:35:05.415Z,100.00
2023-03-25T22:37:36.708Z,100.00
2023-03-25T22:40:08.360Z,100.00
2023-03-25T22:42:37.126Z,100.00
2023-03-25T22:45:06.397Z,100.00
2023-03-25T22:47:33.850Z,100.00
2023-03-25T22:50:01.312Z,100.00
2023-03-25T22:52:28.931Z,100.00
2023-03-25T22:54:56.409Z,100.00
2023-03-25T22:57:23.934Z,100.00
2023-03-25T22:59:52.719Z,100.00
2023-03-25T23:02:20.303Z,100.00
2023-03-25T23:04:47.766Z,100.00
2023-03-25T23:07:15.286Z,100.00
2023-03-25T23:12:47.110Z,100.00
2023-03-25T23:18:18.032Z,100.00
2023-03-25T23:20:49.305Z,100.00
2023-03-25T23:23:17.479Z,100.00
2023-03-25T23:25:44.917Z,100.00
2023-03-25T23:28:12.388Z,100.00
2023-03-25T23:30:45.601Z,100.00
2023-03-25T23:33:13.067Z,100.00
2023-03-25T23:35:41.876Z,100.00
2023-03-25T23:38:09.341Z,100.00
2023-03-25T23:40:36.776Z,100.00
2023-03-25T23:45:55.316Z,100.00
2023-03-25T23:48:24.388Z,100.00
2023-03-25T23:50:53.258Z,100.00
2023-03-25T23:53:21.418Z,100.00
2023-03-25T23:55:51.501Z,100.00
2023-03-25T23:58:19.509Z,100.00
